createdAt,value
2018-12-25T00:00:33.798Z,1027.75
2018-12-25T00:01:33.724Z,1027.80
2018-12-25T00:02:33.775Z,1027.80
2018-12-25T00:03:33.856Z,1027.84
2018-12-25T00:04:33.859Z,1027.85
2018-12-25T00:05:33.864Z,1027.85
2018-12-25T00:06:33.857Z,1027.84
2018-12-25T00:07:33.770Z,1027.86
2018-12-25T00:08:33.847Z,1027.85
2018-12-25T00:09:33.874Z,1027.81
2018-12-25T00:10:33.879Z,1027.81
2018-12-25T00:11:33.911Z,1027.75
2018-12-25T00:12:33.831Z,1027.76
2018-12-25T00:13:33.846Z,1027.77
2018-12-25T00:14:33.898Z,1027.82
2018-12-25T00:15:31.659Z,1027.79
2018-12-25T00:16:33.931Z,1027.72
2018-12-25T00:17:33.862Z,1027.78
2018-12-25T00:18:33.696Z,1027.76
2018-12-25T00:19:33.810Z,1027.80
2018-12-25T00:20:33.853Z,1027.74
2018-12-25T00:21:33.800Z,1027.77
2018-12-25T00:22:33.875Z,1027.74
2018-12-25T00:23:33.851Z,1027.76
2018-12-25T00:24:33.806Z,1027.81
2018-12-25T00:25:33.806Z,1027.76
2018-12-25T00:26:33.772Z,1027.79
2018-12-25T00:27:33.780Z,1027.82
2018-12-25T00:28:33.771Z,1027.85
2018-12-25T00:29:33.811Z,1027.82
2018-12-25T00:30:33.788Z,1027.87
2018-12-25T00:31:33.767Z,1027.89
2018-12-25T00:32:33.849Z,1027.85
2018-12-25T00:33:33.789Z,1027.88
2018-12-25T00:34:33.867Z,1027.89
2018-12-25T00:35:33.788Z,1027.89
2018-12-25T00:36:33.764Z,1027.88
2018-12-25T00:37:33.818Z,1027.92
2018-12-25T00:38:33.895Z,1027.93
2018-12-25T00:39:33.721Z,1027.92
2018-12-25T00:40:33.899Z,1027.89
2018-12-25T00:41:33.886Z,1027.94
2018-12-25T00:42:34.129Z,1027.94
2018-12-25T00:43:33.807Z,1027.93
2018-12-25T00:44:33.969Z,1027.92
2018-12-25T00:45:34.119Z,1027.95
2018-12-25T00:46:34.142Z,1027.94
2018-12-25T00:47:33.782Z,1027.93
2018-12-25T00:48:33.774Z,1027.93
2018-12-25T00:49:33.866Z,1027.95
2018-12-25T00:50:34.011Z,1027.94
2018-12-25T00:51:34.264Z,1027.92
2018-12-25T00:52:33.213Z,1027.98
2018-12-25T00:53:33.308Z,1027.95
2018-12-25T00:54:33.325Z,1027.93
2018-12-25T00:55:33.324Z,1027.99
2018-12-25T00:56:33.360Z,1027.96
2018-12-25T00:57:35.329Z,1027.98
2018-12-25T00:58:33.319Z,1028.01
2018-12-25T00:59:33.414Z,1028.01
2018-12-25T01:00:33.321Z,1027.98
2018-12-25T01:01:33.417Z,1028.00
2018-12-25T01:02:33.377Z,1028.01
2018-12-25T01:03:33.329Z,1028.04
2018-12-25T01:04:33.387Z,1028.00
2018-12-25T01:05:39.763Z,1028.02
2018-12-25T01:06:33.741Z,1027.97
2018-12-25T01:07:33.353Z,1028.02
2018-12-25T01:08:33.303Z,1027.98
2018-12-25T01:10:33.359Z,1028.04
2018-12-25T01:11:33.335Z,1028.02
2018-12-25T01:12:33.300Z,1027.97
2018-12-25T01:13:33.326Z,1028.00
2018-12-25T01:14:33.366Z,1028.00
2018-12-25T01:15:33.646Z,1027.98
2018-12-25T01:16:33.324Z,1027.92
2018-12-25T01:17:33.324Z,1027.95
2018-12-25T01:18:33.375Z,1027.90
2018-12-25T01:19:33.362Z,1027.92
2018-12-25T01:20:33.471Z,1027.96
2018-12-25T01:21:33.360Z,1027.94
2018-12-25T01:22:33.375Z,1027.87
2018-12-25T01:23:33.534Z,1027.93
2018-12-25T01:24:33.372Z,1027.94
2018-12-25T01:25:33.362Z,1027.91
2018-12-25T01:26:33.287Z,1027.93
2018-12-25T01:27:32.861Z,1027.93
2018-12-25T01:28:33.303Z,1027.91
2018-12-25T01:29:33.374Z,1027.90
2018-12-25T01:30:33.361Z,1027.94
2018-12-25T01:31:33.354Z,1027.92
2018-12-25T01:32:33.345Z,1027.95
2018-12-25T01:33:33.624Z,1027.89
2018-12-25T01:34:33.383Z,1027.89
2018-12-25T01:35:33.738Z,1027.93
2018-12-25T01:36:33.299Z,1027.93
2018-12-25T01:37:33.290Z,1027.92
2018-12-25T01:38:33.251Z,1027.94
2018-12-25T01:39:33.208Z,1027.92
2018-12-25T01:40:33.310Z,1027.97
2018-12-25T01:41:33.368Z,1027.94
2018-12-25T01:42:33.268Z,1027.99
2018-12-25T01:43:32.784Z,1028.03
2018-12-25T01:44:33.252Z,1028.01
2018-12-25T01:45:33.399Z,1028.06
2018-12-25T01:46:33.391Z,1028.04
2018-12-25T01:47:33.298Z,1028.04
2018-12-25T01:48:33.303Z,1028.07
2018-12-25T01:49:33.222Z,1028.00
2018-12-25T01:50:33.337Z,1028.03
2018-12-25T01:51:33.249Z,1028.01
2018-12-25T01:52:33.310Z,1028.02
2018-12-25T01:53:33.357Z,1028.01
2018-12-25T01:54:33.196Z,1027.99
2018-12-25T01:55:33.399Z,1028.02
2018-12-25T01:56:33.238Z,1028.07
2018-12-25T01:57:33.258Z,1028.15
2018-12-25T01:58:32.680Z,1028.08
2018-12-25T01:59:33.160Z,1028.08
2018-12-25T02:00:32.852Z,1028.10
2018-12-25T02:01:32.848Z,1028.14
2018-12-25T02:02:32.863Z,1028.17
2018-12-25T02:03:32.837Z,1028.21
2018-12-25T02:04:32.648Z,1028.19
2018-12-25T02:05:32.868Z,1028.19
2018-12-25T02:06:32.928Z,1028.17
2018-12-25T02:07:32.848Z,1028.28
2018-12-25T02:08:32.862Z,1028.24
2018-12-25T02:09:32.525Z,1028.26
2018-12-25T02:11:32.851Z,1028.25
2018-12-25T02:12:32.852Z,1028.23
2018-12-25T02:13:32.853Z,1028.23
2018-12-25T02:14:32.883Z,1028.23
2018-12-25T02:15:32.888Z,1028.20
2018-12-25T02:16:33.105Z,1028.22
2018-12-25T02:17:32.788Z,1028.24
2018-12-25T02:18:32.878Z,1028.22
2018-12-25T02:19:40.068Z,1028.17
2018-12-25T02:20:38.817Z,1028.14
2018-12-25T02:21:32.860Z,1028.15
2018-12-25T02:22:32.814Z,1028.18
2018-12-25T02:23:32.862Z,1028.15
2018-12-25T02:24:32.837Z,1028.23
2018-12-25T02:25:32.741Z,1028.24
2018-12-25T02:26:32.785Z,1028.20
2018-12-25T02:27:32.891Z,1028.13
2018-12-25T02:28:32.728Z,1028.14
2018-12-25T02:29:32.833Z,1028.13
2018-12-25T02:30:32.844Z,1028.18
2018-12-25T02:31:32.889Z,1028.13
2018-12-25T02:32:32.833Z,1028.11
2018-12-25T02:33:32.888Z,1028.06
2018-12-25T02:34:32.858Z,1028.02
2018-12-25T02:35:32.867Z,1028.01
2018-12-25T02:36:32.891Z,1027.98
2018-12-25T02:37:32.925Z,1027.98
2018-12-25T02:38:32.826Z,1028.02
2018-12-25T02:39:32.924Z,1028.03
2018-12-25T02:40:32.850Z,1028.01
2018-12-25T02:41:32.779Z,1028.07
2018-12-25T02:42:32.743Z,1028.06
2018-12-25T02:43:32.857Z,1028.08
2018-12-25T02:44:32.887Z,1028.01
2018-12-25T02:45:32.840Z,1028.01
2018-12-25T02:46:32.890Z,1027.98
2018-12-25T02:47:32.884Z,1027.98
2018-12-25T02:48:32.939Z,1028.00
2018-12-25T02:49:32.826Z,1027.94
2018-12-25T02:50:32.906Z,1027.94
2018-12-25T02:51:32.836Z,1027.87
2018-12-25T02:52:32.916Z,1027.93
2018-12-25T02:53:32.939Z,1027.88
2018-12-25T02:54:32.774Z,1027.89
2018-12-25T02:55:32.846Z,1027.84
2018-12-25T02:56:32.867Z,1027.83
2018-12-25T02:57:32.887Z,1027.79
2018-12-25T02:58:32.902Z,1027.86
2018-12-25T02:59:32.854Z,1027.81
2018-12-25T03:00:32.831Z,1027.81
2018-12-25T03:01:32.752Z,1027.79
2018-12-25T03:02:32.769Z,1027.80
2018-12-25T03:03:32.906Z,1027.83
2018-12-25T03:04:30.396Z,1027.77
2018-12-25T03:05:32.891Z,1027.80
2018-12-25T03:06:34.379Z,1027.81
2018-12-25T03:07:34.343Z,1027.77
2018-12-25T03:08:30.406Z,1027.82
2018-12-25T03:09:34.355Z,1027.83
2018-12-25T03:10:32.585Z,1027.89
2018-12-25T03:11:32.401Z,1027.87
2018-12-25T03:12:30.339Z,1027.85
2018-12-25T03:13:32.222Z,1027.89
2018-12-25T03:14:32.418Z,1027.89
2018-12-25T03:15:32.672Z,1027.86
2018-12-25T03:16:32.385Z,1027.83
2018-12-25T03:17:32.641Z,1027.79
2018-12-25T03:18:32.410Z,1027.78
2018-12-25T03:19:32.350Z,1027.76
2018-12-25T03:20:31.831Z,1027.65
2018-12-25T03:21:32.379Z,1027.66
2018-12-25T03:22:32.434Z,1027.69
2018-12-25T03:23:32.466Z,1027.61
2018-12-25T03:24:32.436Z,1027.61
2018-12-25T03:25:32.441Z,1027.60
2018-12-25T03:26:33.431Z,1027.59
2018-12-25T03:27:32.395Z,1027.55
2018-12-25T03:28:32.410Z,1027.54
2018-12-25T03:29:32.381Z,1027.52
2018-12-25T03:30:32.430Z,1027.53
2018-12-25T03:31:32.382Z,1027.50
2018-12-25T03:32:32.249Z,1027.47
2018-12-25T03:33:32.355Z,1027.56
2018-12-25T03:34:32.340Z,1027.54
2018-12-25T03:35:30.163Z,1027.55
2018-12-25T03:36:32.360Z,1027.50
2018-12-25T03:37:32.301Z,1027.49
2018-12-25T03:38:32.265Z,1027.47
2018-12-25T03:39:32.387Z,1027.51
2018-12-25T03:40:32.411Z,1027.49
2018-12-25T03:41:32.348Z,1027.52
2018-12-25T03:42:32.328Z,1027.53
2018-12-25T03:43:32.422Z,1027.51
2018-12-25T03:44:32.378Z,1027.48
2018-12-25T03:45:32.418Z,1027.48
2018-12-25T03:46:32.413Z,1027.49
2018-12-25T03:47:32.283Z,1027.49
2018-12-25T03:48:32.274Z,1027.53
2018-12-25T03:49:32.259Z,1027.49
2018-12-25T03:50:32.329Z,1027.52
2018-12-25T03:51:32.377Z,1027.53
2018-12-25T03:52:32.347Z,1027.49
2018-12-25T03:53:32.267Z,1027.48
2018-12-25T03:54:32.300Z,1027.44
2018-12-25T03:55:32.394Z,1027.46
2018-12-25T03:56:32.409Z,1027.46
2018-12-25T03:57:32.393Z,1027.43
2018-12-25T03:58:32.270Z,1027.48
2018-12-25T03:59:32.351Z,1027.44
2018-12-25T04:00:32.245Z,1027.43
2018-12-25T04:01:32.353Z,1027.40
2018-12-25T04:02:32.355Z,1027.42
2018-12-25T04:03:32.363Z,1027.45
2018-12-25T04:04:32.369Z,1027.46
2018-12-25T04:05:32.384Z,1027.46
2018-12-25T04:06:32.351Z,1027.46
2018-12-25T04:07:33.400Z,1027.46
2018-12-25T04:08:32.255Z,1027.49
2018-12-25T04:09:32.384Z,1027.47
2018-12-25T04:10:33.819Z,1027.48
2018-12-25T04:11:31.863Z,1027.48
2018-12-25T04:12:31.866Z,1027.44
2018-12-25T04:14:32.096Z,1027.46
2018-12-25T04:15:31.903Z,1027.52
2018-12-25T04:16:31.850Z,1027.50
2018-12-25T04:17:32.029Z,1027.51
2018-12-25T04:18:31.850Z,1027.57
2018-12-25T04:19:32.100Z,1027.54
2018-12-25T04:20:31.870Z,1027.52
2018-12-25T04:21:31.889Z,1027.57
2018-12-25T04:22:31.863Z,1027.57
2018-12-25T04:23:31.769Z,1027.56
2018-12-25T04:24:31.773Z,1027.53
2018-12-25T04:25:31.796Z,1027.54
2018-12-25T04:26:31.865Z,1027.52
2018-12-25T04:27:31.813Z,1027.53
2018-12-25T04:28:31.673Z,1027.49
2018-12-25T04:29:31.832Z,1027.52
2018-12-25T04:30:31.870Z,1027.51
2018-12-25T04:31:31.847Z,1027.48
2018-12-25T04:32:31.909Z,1027.42
2018-12-25T04:33:31.881Z,1027.43
2018-12-25T04:34:31.825Z,1027.44
2018-12-25T04:35:31.877Z,1027.50
2018-12-25T04:36:31.909Z,1027.46
2018-12-25T04:37:31.820Z,1027.47
2018-12-25T04:38:31.971Z,1027.43
2018-12-25T04:39:31.906Z,1027.47
2018-12-25T04:40:31.977Z,1027.45
2018-12-25T04:41:31.344Z,1027.48
2018-12-25T04:42:31.942Z,1027.45
2018-12-25T04:43:31.955Z,1027.48
2018-12-25T04:44:31.914Z,1027.48
2018-12-25T04:45:31.912Z,1027.48
2018-12-25T04:46:31.965Z,1027.51
2018-12-25T04:47:31.983Z,1027.49
2018-12-25T04:48:31.900Z,1027.49
2018-12-25T04:49:31.912Z,1027.50
2018-12-25T04:50:31.892Z,1027.49
2018-12-25T04:51:31.933Z,1027.50
2018-12-25T04:52:32.017Z,1027.45
2018-12-25T04:53:31.895Z,1027.49
2018-12-25T04:54:29.539Z,1027.42
2018-12-25T04:55:31.868Z,1027.43
2018-12-25T04:56:31.949Z,1027.42
2018-12-25T04:57:31.889Z,1027.44
2018-12-25T04:58:31.976Z,1027.44
2018-12-25T04:59:33.890Z,1027.47
2018-12-25T05:00:31.850Z,1027.46
2018-12-25T05:01:31.946Z,1027.51
2018-12-25T05:02:31.897Z,1027.50
2018-12-25T05:03:31.891Z,1027.55
2018-12-25T05:04:31.983Z,1027.52
2018-12-25T05:05:31.906Z,1027.51
2018-12-25T05:06:31.898Z,1027.49
2018-12-25T05:07:32.029Z,1027.49
2018-12-25T05:08:31.807Z,1027.53
2018-12-25T05:09:31.933Z,1027.56
2018-12-25T05:10:31.947Z,1027.54
2018-12-25T05:11:31.863Z,1027.52
2018-12-25T05:12:31.941Z,1027.57
2018-12-25T05:13:31.984Z,1027.53
2018-12-25T05:14:31.907Z,1027.55
2018-12-25T05:15:33.389Z,1027.54
2018-12-25T05:16:31.406Z,1027.56
2018-12-25T05:17:33.393Z,1027.58
2018-12-25T05:18:31.767Z,1027.54
2018-12-25T05:19:33.401Z,1027.54
2018-12-25T05:20:37.849Z,1027.51
2018-12-25T05:21:32.358Z,1027.50
2018-12-25T05:22:31.364Z,1027.49
2018-12-25T05:23:31.356Z,1027.47
2018-12-25T05:24:31.397Z,1027.45
2018-12-25T05:25:31.370Z,1027.47
2018-12-25T05:26:31.416Z,1027.46
2018-12-25T05:27:31.370Z,1027.52
2018-12-25T05:28:31.355Z,1027.53
2018-12-25T05:29:31.354Z,1027.51
2018-12-25T05:30:30.898Z,1027.55
2018-12-25T05:31:31.430Z,1027.63
2018-12-25T05:32:31.820Z,1027.56
2018-12-25T05:33:30.850Z,1027.57
2018-12-25T05:34:31.336Z,1027.58
2018-12-25T05:35:31.453Z,1027.55
2018-12-25T05:36:31.342Z,1027.51
2018-12-25T05:37:31.349Z,1027.54
2018-12-25T05:38:31.305Z,1027.60
2018-12-25T05:39:31.348Z,1027.53
2018-12-25T05:40:31.303Z,1027.54
2018-12-25T05:41:31.342Z,1027.58
2018-12-25T05:42:31.376Z,1027.55
2018-12-25T05:44:31.431Z,1027.59
2018-12-25T05:45:31.356Z,1027.52
2018-12-25T05:46:31.478Z,1027.54
2018-12-25T05:47:31.412Z,1027.52
2018-12-25T05:48:31.385Z,1027.54
2018-12-25T05:49:31.367Z,1027.55
2018-12-25T05:50:31.354Z,1027.56
2018-12-25T05:51:31.662Z,1027.53
2018-12-25T05:52:31.330Z,1027.51
2018-12-25T05:53:31.344Z,1027.58
2018-12-25T05:54:31.564Z,1027.58
2018-12-25T05:55:31.525Z,1027.64
2018-12-25T05:56:31.320Z,1027.62
2018-12-25T05:57:31.461Z,1027.61
2018-12-25T05:58:31.389Z,1027.67
2018-12-25T05:59:31.369Z,1027.70
2018-12-25T06:00:31.391Z,1027.71
2018-12-25T06:01:31.541Z,1027.64
2018-12-25T06:02:31.350Z,1027.73
2018-12-25T06:03:31.385Z,1027.68
2018-12-25T06:04:31.527Z,1027.68
2018-12-25T06:05:31.347Z,1027.66
2018-12-25T06:06:31.300Z,1027.73
2018-12-25T06:07:31.386Z,1027.76
2018-12-25T06:08:33.335Z,1027.76
2018-12-25T06:09:31.136Z,1027.73
2018-12-25T06:10:31.311Z,1027.68
2018-12-25T06:11:31.303Z,1027.72
2018-12-25T06:12:31.400Z,1027.69
2018-12-25T06:13:31.312Z,1027.62
2018-12-25T06:14:31.463Z,1027.61
2018-12-25T06:15:31.330Z,1027.63
2018-12-25T06:16:31.302Z,1027.63
2018-12-25T06:17:31.177Z,1027.63
2018-12-25T06:18:30.850Z,1027.67
2018-12-25T06:19:30.806Z,1027.68
2018-12-25T06:20:30.816Z,1027.66
2018-12-25T06:21:30.893Z,1027.66
2018-12-25T06:22:30.789Z,1027.67
2018-12-25T06:23:30.709Z,1027.64
2018-12-25T06:24:30.853Z,1027.71
2018-12-25T06:25:30.793Z,1027.68
2018-12-25T06:26:30.829Z,1027.73
2018-12-25T06:27:30.838Z,1027.72
2018-12-25T06:28:30.851Z,1027.69
2018-12-25T06:29:30.693Z,1027.68
2018-12-25T06:30:30.777Z,1027.66
2018-12-25T06:31:30.819Z,1027.71
2018-12-25T06:32:30.806Z,1027.66
2018-12-25T06:33:30.663Z,1027.71
2018-12-25T06:34:30.906Z,1027.75
2018-12-25T06:35:30.851Z,1027.71
2018-12-25T06:36:30.847Z,1027.72
2018-12-25T06:37:30.824Z,1027.66
2018-12-25T06:38:30.788Z,1027.67
2018-12-25T06:39:30.887Z,1027.66
2018-12-25T06:40:30.655Z,1027.63
2018-12-25T06:41:30.789Z,1027.65
2018-12-25T06:42:30.842Z,1027.67
2018-12-25T06:43:30.847Z,1027.67
2018-12-25T06:44:30.693Z,1027.63
2018-12-25T06:45:30.782Z,1027.59
2018-12-25T06:46:30.887Z,1027.59
2018-12-25T06:47:30.861Z,1027.62
2018-12-25T06:48:30.489Z,1027.58
2018-12-25T06:49:30.837Z,1027.57
2018-12-25T06:50:30.751Z,1027.56
2018-12-25T06:51:30.788Z,1027.60
2018-12-25T06:52:30.998Z,1027.58
2018-12-25T06:53:30.707Z,1027.53
2018-12-25T06:54:30.632Z,1027.54
2018-12-25T06:55:30.873Z,1027.52
2018-12-25T06:56:30.744Z,1027.51
2018-12-25T06:57:30.807Z,1027.43
2018-12-25T06:58:30.778Z,1027.42
2018-12-25T06:59:31.320Z,1027.37
2018-12-25T07:00:30.984Z,1027.39
2018-12-25T07:01:30.226Z,1027.39
2018-12-25T07:02:30.733Z,1027.36
2018-12-25T07:03:30.693Z,1027.39
2018-12-25T07:04:30.949Z,1027.38
2018-12-25T07:05:30.856Z,1027.41
2018-12-25T07:06:31.090Z,1027.37
2018-12-25T07:07:30.917Z,1027.43
2018-12-25T07:08:30.207Z,1027.37
2018-12-25T07:09:30.887Z,1027.42
2018-12-25T07:10:30.710Z,1027.37
2018-12-25T07:11:30.822Z,1027.38
2018-12-25T07:12:30.851Z,1027.40
2018-12-25T07:13:30.989Z,1027.41
2018-12-25T07:14:30.678Z,1027.44
2018-12-25T07:15:33.256Z,1027.42
2018-12-25T07:16:37.005Z,1027.44
2018-12-25T07:17:30.876Z,1027.40
2018-12-25T07:18:30.820Z,1027.40
2018-12-25T07:19:36.736Z,1027.34
2018-12-25T07:20:30.854Z,1027.37
2018-12-25T07:21:30.664Z,1027.33
2018-12-25T07:22:30.926Z,1027.31
2018-12-25T07:23:30.434Z,1027.29
2018-12-25T07:24:30.303Z,1027.31
2018-12-25T07:25:32.358Z,1027.28
2018-12-25T07:26:30.355Z,1027.25
2018-12-25T07:27:30.784Z,1027.23
2018-12-25T07:28:30.111Z,1027.22
2018-12-25T07:30:30.314Z,1027.22
2018-12-25T07:31:30.208Z,1027.22
2018-12-25T07:32:30.322Z,1027.19
2018-12-25T07:33:30.264Z,1027.25
2018-12-25T07:34:30.318Z,1027.25
2018-12-25T07:35:30.360Z,1027.31
2018-12-25T07:36:30.758Z,1027.32
2018-12-25T07:37:30.204Z,1027.31
2018-12-25T07:38:30.392Z,1027.34
2018-12-25T07:39:30.388Z,1027.38
2018-12-25T07:40:30.412Z,1027.37
2018-12-25T07:41:30.303Z,1027.38
2018-12-25T07:42:32.341Z,1027.45
2018-12-25T07:43:30.824Z,1027.45
2018-12-25T07:44:30.338Z,1027.55
2018-12-25T07:45:30.375Z,1027.50
2018-12-25T07:46:30.405Z,1027.49
2018-12-25T07:47:30.426Z,1027.55
2018-12-25T07:48:30.380Z,1027.50
2018-12-25T07:49:30.425Z,1027.46
2018-12-25T07:50:29.875Z,1027.47
2018-12-25T07:51:30.442Z,1027.45
2018-12-25T07:52:29.852Z,1027.43
2018-12-25T07:53:30.411Z,1027.46
2018-12-25T07:54:30.286Z,1027.45
2018-12-25T07:55:30.223Z,1027.45
2018-12-25T07:56:30.205Z,1027.43
2018-12-25T07:57:30.243Z,1027.45
2018-12-25T07:58:30.441Z,1027.43
2018-12-25T07:59:30.576Z,1027.42
2018-12-25T08:00:30.493Z,1027.47
2018-12-25T08:01:30.667Z,1027.45
2018-12-25T08:02:30.522Z,1027.49
2018-12-25T08:03:30.342Z,1027.46
2018-12-25T08:04:30.345Z,1027.50
2018-12-25T08:05:30.392Z,1027.44
2018-12-25T08:06:30.361Z,1027.47
2018-12-25T08:07:30.337Z,1027.47
2018-12-25T08:08:30.805Z,1027.47
2018-12-25T08:09:30.402Z,1027.50
2018-12-25T08:10:30.253Z,1027.53
2018-12-25T08:11:30.427Z,1027.52
2018-12-25T08:12:29.705Z,1027.59
2018-12-25T08:13:36.533Z,1027.58
2018-12-25T08:14:30.359Z,1027.56
2018-12-25T08:15:30.819Z,1027.55
2018-12-25T08:16:30.244Z,1027.51
2018-12-25T08:17:30.197Z,1027.50
2018-12-25T08:18:30.388Z,1027.49
2018-12-25T08:19:30.404Z,1027.53
2018-12-25T08:20:30.743Z,1027.52
2018-12-25T08:21:30.552Z,1027.52
2018-12-25T08:22:30.396Z,1027.54
2018-12-25T08:23:30.392Z,1027.51
2018-12-25T08:24:30.406Z,1027.51
2018-12-25T08:25:30.590Z,1027.52
2018-12-25T08:26:30.360Z,1027.47
2018-12-25T08:27:30.588Z,1027.44
2018-12-25T08:28:44.020Z,1027.50
2018-12-25T08:29:27.949Z,1027.52
2018-12-25T08:30:29.862Z,1027.47
2018-12-25T08:31:29.876Z,1027.48
2018-12-25T08:32:30.216Z,1027.44
2018-12-25T08:33:29.908Z,1027.46
2018-12-25T08:34:29.971Z,1027.44
2018-12-25T08:35:30.357Z,1027.49
2018-12-25T08:36:30.335Z,1027.46
2018-12-25T08:37:29.525Z,1027.46
2018-12-25T08:38:29.844Z,1027.40
2018-12-25T08:39:29.810Z,1027.38
2018-12-25T08:40:30.154Z,1027.40
2018-12-25T08:41:29.863Z,1027.39
2018-12-25T08:42:29.866Z,1027.37
2018-12-25T08:43:31.899Z,1027.36
2018-12-25T08:44:29.893Z,1027.33
2018-12-25T08:45:29.910Z,1027.35
2018-12-25T08:46:29.890Z,1027.32
2018-12-25T08:47:29.867Z,1027.30
2018-12-25T08:48:29.898Z,1027.24
2018-12-25T08:49:30.025Z,1027.22
2018-12-25T08:50:29.890Z,1027.15
2018-12-25T08:51:37.435Z,1027.21
2018-12-25T08:52:29.960Z,1027.13
2018-12-25T08:53:29.400Z,1027.12
2018-12-25T08:54:29.908Z,1027.12
2018-12-25T08:55:30.041Z,1027.12
2018-12-25T08:56:30.056Z,1027.10
2018-12-25T08:57:30.064Z,1027.13
2018-12-25T08:58:30.055Z,1027.14
2018-12-25T08:59:30.021Z,1027.15
2018-12-25T09:00:29.843Z,1027.21
2018-12-25T09:01:29.857Z,1027.18
2018-12-25T09:02:30.020Z,1027.22
2018-12-25T09:03:29.361Z,1027.25
2018-12-25T09:04:29.947Z,1027.18
2018-12-25T09:05:29.796Z,1027.21
2018-12-25T09:06:30.002Z,1027.21
2018-12-25T09:07:29.892Z,1027.12
2018-12-25T09:08:34.773Z,1027.12
2018-12-25T09:09:30.001Z,1027.11
2018-12-25T09:10:29.934Z,1027.09
2018-12-25T09:11:29.928Z,1027.09
2018-12-25T09:12:29.876Z,1027.04
2018-12-25T09:13:29.913Z,1027.05
2018-12-25T09:14:30.013Z,1027.06
2018-12-25T09:15:29.918Z,1027.05
2018-12-25T09:16:29.915Z,1027.06
2018-12-25T09:17:29.939Z,1027.03
2018-12-25T09:18:29.957Z,1027.03
2018-12-25T09:19:29.953Z,1027.02
2018-12-25T09:20:29.913Z,1027.04
2018-12-25T09:21:30.374Z,1027.02
2018-12-25T09:22:29.366Z,1027.06
2018-12-25T09:23:29.361Z,1027.07
2018-12-25T09:24:29.860Z,1027.09
2018-12-25T09:25:29.976Z,1027.15
2018-12-25T09:26:29.967Z,1027.15
2018-12-25T09:27:29.908Z,1027.18
2018-12-25T09:28:29.797Z,1027.15
2018-12-25T09:29:29.774Z,1027.18
2018-12-25T09:30:29.940Z,1027.25
2018-12-25T09:31:29.699Z,1027.29
2018-12-25T09:32:30.259Z,1027.30
2018-12-25T09:33:29.892Z,1027.35
2018-12-25T09:34:29.748Z,1027.41
2018-12-25T09:35:29.587Z,1027.35
2018-12-25T09:36:29.711Z,1027.41
2018-12-25T09:37:29.745Z,1027.42
2018-12-25T09:38:29.834Z,1027.41
2018-12-25T09:39:29.049Z,1027.43
2018-12-25T09:40:29.371Z,1027.46
2018-12-25T09:41:29.840Z,1027.46
2018-12-25T09:42:29.179Z,1027.43
2018-12-25T09:43:29.716Z,1027.46
2018-12-25T09:44:29.628Z,1027.47
2018-12-25T09:45:29.420Z,1027.50
2018-12-25T09:46:29.418Z,1027.46
2018-12-25T09:47:29.374Z,1027.56
2018-12-25T09:48:29.341Z,1027.59
2018-12-25T09:50:35.310Z,1027.54
2018-12-25T09:51:28.886Z,1027.61
2018-12-25T09:52:29.343Z,1027.60
2018-12-25T09:53:29.411Z,1027.65
2018-12-25T09:54:29.376Z,1027.66
2018-12-25T09:55:29.402Z,1027.59
2018-12-25T09:56:29.424Z,1027.63
2018-12-25T09:57:29.428Z,1027.59
2018-12-25T09:58:29.716Z,1027.63
2018-12-25T09:59:29.264Z,1027.61
2018-12-25T10:00:29.685Z,1027.68
2018-12-25T10:01:29.483Z,1027.70
2018-12-25T10:02:29.327Z,1027.70
2018-12-25T10:03:29.126Z,1027.70
2018-12-25T10:04:29.417Z,1027.68
2018-12-25T10:05:29.455Z,1027.70
2018-12-25T10:06:29.430Z,1027.67
2018-12-25T10:07:29.422Z,1027.66
2018-12-25T10:08:29.390Z,1027.62
2018-12-25T10:10:29.265Z,1027.62
2018-12-25T10:11:29.387Z,1027.65
2018-12-25T10:12:35.735Z,1027.67
2018-12-25T10:13:29.467Z,1027.70
2018-12-25T10:14:28.814Z,1027.66
2018-12-25T10:15:29.307Z,1027.74
2018-12-25T10:16:28.895Z,1027.77
2018-12-25T10:17:29.428Z,1027.77
2018-12-25T10:18:29.434Z,1027.79
2018-12-25T10:19:29.347Z,1027.76
2018-12-25T10:20:29.544Z,1027.73
2018-12-25T10:21:29.305Z,1027.73
2018-12-25T10:22:29.399Z,1027.69
2018-12-25T10:23:29.479Z,1027.64
2018-12-25T10:24:29.502Z,1027.59
2018-12-25T10:25:29.433Z,1027.63
2018-12-25T10:26:29.390Z,1027.56
2018-12-25T10:27:29.436Z,1027.51
2018-12-25T10:28:29.710Z,1027.50
2018-12-25T10:29:29.442Z,1027.53
2018-12-25T10:30:29.873Z,1027.52
2018-12-25T10:31:28.810Z,1027.54
2018-12-25T10:32:28.823Z,1027.55
2018-12-25T10:33:29.410Z,1027.50
2018-12-25T10:34:28.687Z,1027.51
2018-12-25T10:35:29.278Z,1027.49
2018-12-25T10:36:28.902Z,1027.43
2018-12-25T10:37:35.415Z,1027.40
2018-12-25T10:38:28.863Z,1027.42
2018-12-25T10:39:29.380Z,1027.41
2018-12-25T10:40:28.931Z,1027.45
2018-12-25T10:41:43.411Z,1027.36
2018-12-25T10:42:28.457Z,1027.46
2018-12-25T10:43:29.356Z,1027.47
2018-12-25T10:44:29.817Z,1027.43
2018-12-25T10:45:28.522Z,1027.48
2018-12-25T10:46:29.421Z,1027.44
2018-12-25T10:47:29.509Z,1027.47
2018-12-25T10:48:28.965Z,1027.46
2018-12-25T10:49:31.323Z,1027.57
2018-12-25T10:50:29.395Z,1027.51
2018-12-25T10:51:29.378Z,1027.48
2018-12-25T10:52:28.875Z,1027.52
2018-12-25T10:53:28.873Z,1027.47
2018-12-25T10:54:28.851Z,1027.50
2018-12-25T10:55:28.882Z,1027.55
2018-12-25T10:56:28.963Z,1027.45
2018-12-25T10:57:28.858Z,1027.49
2018-12-25T10:58:28.923Z,1027.45
2018-12-25T10:59:29.357Z,1027.43
2018-12-25T11:00:28.520Z,1027.38
2018-12-25T11:01:28.414Z,1027.44
2018-12-25T11:02:31.391Z,1027.38
2018-12-25T11:03:29.009Z,1027.47
2018-12-25T11:04:28.868Z,1027.46
2018-12-25T11:05:28.379Z,1027.53
2018-12-25T11:06:29.323Z,1027.48
2018-12-25T11:07:28.942Z,1027.41
2018-12-25T11:08:28.782Z,1027.44
2018-12-25T11:09:28.591Z,1027.43
2018-12-25T11:10:28.901Z,1027.46
2018-12-25T11:11:28.866Z,1027.42
2018-12-25T11:12:34.875Z,1027.43
2018-12-25T11:13:29.070Z,1027.49
2018-12-25T11:14:28.943Z,1027.45
2018-12-25T11:15:28.887Z,1027.51
2018-12-25T11:16:28.912Z,1027.49
2018-12-25T11:17:28.444Z,1027.49
2018-12-25T11:18:29.381Z,1027.53
2018-12-25T11:19:28.898Z,1027.53
2018-12-25T11:20:29.130Z,1027.47
2018-12-25T11:21:28.978Z,1027.48
2018-12-25T11:22:28.938Z,1027.48
2018-12-25T11:23:28.864Z,1027.51
2018-12-25T11:24:28.733Z,1027.49
2018-12-25T11:25:28.847Z,1027.50
2018-12-25T11:26:28.982Z,1027.45
2018-12-25T11:27:28.771Z,1027.50
2018-12-25T11:28:28.932Z,1027.52
2018-12-25T11:29:28.888Z,1027.57
2018-12-25T11:30:29.013Z,1027.52
2018-12-25T11:31:28.674Z,1027.51
2018-12-25T11:33:28.666Z,1027.52
2018-12-25T11:34:28.407Z,1027.58
2018-12-25T11:35:28.252Z,1027.53
2018-12-25T11:36:28.993Z,1027.53
2018-12-25T11:37:28.430Z,1027.49
2018-12-25T11:38:29.335Z,1027.49
2018-12-25T11:39:28.181Z,1027.47
2018-12-25T11:40:34.922Z,1027.52
2018-12-25T11:41:28.838Z,1027.53
2018-12-25T11:42:26.714Z,1027.47
2018-12-25T11:43:28.855Z,1027.44
2018-12-25T11:44:28.922Z,1027.42
2018-12-25T11:45:28.956Z,1027.47
2018-12-25T11:46:28.861Z,1027.43
2018-12-25T11:47:28.901Z,1027.39
2018-12-25T11:48:29.005Z,1027.41
2018-12-25T11:49:28.954Z,1027.36
2018-12-25T11:50:28.454Z,1027.35
2018-12-25T11:51:29.005Z,1027.36
2018-12-25T11:52:28.957Z,1027.37
2018-12-25T11:53:28.489Z,1027.38
2018-12-25T11:54:28.687Z,1027.36
2018-12-25T11:55:28.505Z,1027.36
2018-12-25T11:56:28.962Z,1027.37
2018-12-25T11:57:29.720Z,1027.36
2018-12-25T11:58:28.997Z,1027.37
2018-12-25T11:59:29.025Z,1027.39
2018-12-25T12:00:28.923Z,1027.37
2018-12-25T12:01:29.001Z,1027.40
2018-12-25T12:02:28.965Z,1027.39
2018-12-25T12:03:28.979Z,1027.30
2018-12-25T12:04:28.993Z,1027.34
2018-12-25T12:05:29.980Z,1027.30
2018-12-25T12:06:34.963Z,1027.30
2018-12-25T12:07:28.967Z,1027.34
2018-12-25T12:08:29.012Z,1027.34
2018-12-25T12:09:29.021Z,1027.28
2018-12-25T12:10:28.942Z,1027.27
2018-12-25T12:11:28.988Z,1027.29
2018-12-25T12:12:28.574Z,1027.31
2018-12-25T12:13:28.665Z,1027.38